| time (UTC) | temp F | wind direction | speed MPH | gust MPH | rain 1hr in | rain 24hr in | rain mn in | humidity % | barometer mb |
| 20260509105050 | 75 | 243 | 0.0 | 0.0 | 0.00 | 0.00 | 0.00 | 99 | 975.6 |
| 20260509104546 | 75 | 243 | 0.0 | 0.0 | 0.00 | 0.00 | 0.00 | 99 | 975.7 |
| 20260509104043 | 75 | 243 | 0.0 | 0.0 | 0.00 | 0.00 | 0.00 | 99 | 975.3 |
| 20260509103541 | 75 | 243 | 0.0 | 0.0 | 0.00 | 0.00 | 0.00 | 99 | 975.6 |
| 20260509103039 | 75 | 243 | 0.0 | 0.0 | 0.00 | 0.00 | 0.00 | 99 | 975.2 |
| 20260509102536 | 75 | 243 | 0.0 | 0.0 | 0.00 | 0.00 | 0.00 | 99 | 975.2 |
| 20260509102033 | 75 | 243 | 0.0 | 0.0 | 0.00 | 0.00 | 0.00 | 99 | 975.4 |
| 20260509101529 | 75 | 243 | 0.0 | 0.0 | 0.00 | 0.00 | 0.00 | 99 | 975.5 |
| 20260509101026 | 75 | 243 | 0.0 | 0.0 | 0.00 | 0.00 | 0.00 | 99 | 975.2 |
| 20260509100523 | 75 | 243 | 0.0 | 0.0 | 0.00 | 0.00 | 0.00 | 99 | 975.2 |
| 20260509100021 | 75 | 243 | 0.0 | 0.0 | 0.00 | 0.00 | 0.00 | 99 | 975.1 |
| 20260509095517 | 75 | 243 | 0.0 | 0.0 | 0.00 | 0.00 | 0.00 | 99 | 975.2 |
| 20260509095015 | 75 | 225 | 0.0 | 0.0 | 0.00 | 0.00 | 0.00 | 99 | 974.8 |
| 20260509094511 | 75 | 226 | 0.0 | 0.0 | 0.00 | 0.00 | 0.00 | 99 | 975.1 |
| 20260509094008 | 75 | 233 | 0.0 | 0.0 | 0.00 | 0.00 | 0.00 | 99 | 975.0 |
| 20260509093506 | 75 | 222 | 0.0 | 0.0 | 0.00 | 0.00 | 0.00 | 99 | 975.1 |
| 20260509093004 | 75 | 229 | 0.0 | 0.0 | 0.00 | 0.00 | 0.00 | 99 | 975.1 |
| 20260509092501 | 75 | 228 | 0.0 | 0.0 | 0.00 | 0.00 | 0.00 | 99 | 974.9 |
| 20260509092000 | 84 | 214 | 0.0 | 0.0 | 0.00 | 0.00 | 0.00 | 87 | 975.4 |
| 20260509091456 | 84 | 214 | 0.0 | 0.0 | 0.00 | 0.00 | 0.00 | 87 | 975.4 |
| 20260509090953 | 84 | 214 | 0.0 | 0.0 | 0.00 | 0.00 | 0.00 | 87 | 975.4 |
| 20260509090451 | 84 | 214 | 0.0 | 0.0 | 0.00 | 0.00 | 0.00 | 87 | 975.6 |
| 20260509085948 | 84 | 214 | 0.0 | 0.0 | 0.00 | 0.00 | 0.00 | 87 | 975.7 |
| 20260509085445 | 84 | 214 | 0.0 | 0.0 | 0.00 | 0.00 | 0.00 | 87 | 975.8 |
| 20260509084941 | 84 | 214 | 0.0 | 0.0 | 0.00 | 0.00 | 0.00 | 87 | 975.8 |
| 20260509084438 | 84 | 214 | 0.0 | 0.0 | 0.00 | 0.00 | 0.00 | 87 | 975.5 |
| 20260509083935 | 87 | 183 | 0.0 | 0.0 | 0.00 | 0.00 | 0.00 | 78 | 975.5 |
| 20260509083433 | 88 | 234 | 0.0 | 1.0 | 0.00 | 0.00 | 0.00 | 75 | 975.4 |
| 20260509082929 | 89 | 212 | 0.0 | 0.0 | 0.00 | 0.00 | 0.00 | 70 | 975.0 |
| 20260509082427 | 91 | 219 | 0.0 | 0.0 | 0.00 | 0.00 | 0.00 | 68 | 975.1 |
| 20260509081923 | 91 | 236 | 0.0 | 0.0 | 0.00 | 0.00 | 0.00 | 69 | 975.2 |
| 20260509081421 | 91 | 223 | 0.0 | 0.0 | 0.00 | 0.00 | 0.00 | 69 | 975.1 |
| 20260509080918 | 92 | 233 | 0.0 | 1.0 | 0.00 | 0.00 | 0.00 | 67 | 975.2 |
| 20260509080416 | 90 | 214 | 0.0 | 0.0 | 0.00 | 0.00 | 0.00 | 69 | 975.4 |
| 20260509075914 | 89 | 187 | 0.0 | 1.0 | 0.00 | 0.00 | 0.00 | 71 | 975.3 |
| 20260509075410 | 89 | 246 | 0.0 | 0.0 | 0.00 | 0.00 | 0.00 | 74 | 975.6 |
| 20260509074908 | 89 | 222 | 0.0 | 0.0 | 0.00 | 0.00 | 0.00 | 75 | 975.6 |
| 20260509074406 | 89 | 229 | 0.0 | 0.0 | 0.00 | 0.00 | 0.00 | 72 | 975.5 |
| 20260509073902 | 88 | 224 | 0.0 | 0.0 | 0.00 | 0.00 | 0.00 | 78 | 975.9 |
| 20260509073358 | 87 | 225 | 0.0 | 0.0 | 0.00 | 0.00 | 0.00 | 79 | 975.9 |
| 20260509072855 | 86 | 236 | 0.0 | 1.0 | 0.00 | 0.00 | 0.00 | 78 | 975.8 |
| 20260509072351 | 86 | 224 | 0.0 | 1.0 | 0.00 | 0.00 | 0.00 | 77 | 976.1 |
| 20260509071848 | 88 | 217 | 0.0 | 1.0 | 0.00 | 0.00 | 0.00 | 76 | 976.1 |
| 20260509071345 | 87 | 233 | 0.0 | 0.0 | 0.00 | 0.00 | 0.00 | 76 | 976.2 |
| 20260509070842 | 87 | 236 | 1.0 | 1.0 | 0.00 | 0.00 | 0.00 | 79 | 976.4 |
| 20260509070339 | 86 | 233 | 0.0 | 0.0 | 0.00 | 0.00 | 0.00 | 82 | 976.5 |
| 20260509065835 | 86 | 248 | 1.0 | 1.0 | 0.00 | 0.00 | 0.00 | 80 | 976.7 |
| 20260509065331 | 85 | 225 | 0.0 | 0.0 | 0.00 | 0.00 | 0.00 | 82 | 976.5 |
| 20260509064827 | 84 | 223 | 0.0 | 0.0 | 0.00 | 0.00 | 0.00 | 83 | 976.8 |
| 20260509064325 | 86 | 227 | 0.0 | 1.0 | 0.00 | 0.00 | 0.00 | 80 | 976.8 |
| 20260509063823 | 86 | 235 | 0.0 | 1.0 | 0.00 | 0.00 | 0.00 | 81 | 976.9 |
| 20260509063318 | 85 | 235 | 0.0 | 0.0 | 0.00 | 0.00 | 0.00 | 86 | 976.9 |
| 20260509062816 | 85 | 235 | 0.0 | 1.0 | 0.00 | 0.00 | 0.00 | 83 | 977.1 |
| 20260509062313 | 84 | 220 | 1.0 | 1.0 | 0.00 | 0.00 | 0.00 | 87 | 977.7 |
| 20260509061810 | 84 | 235 | 0.0 | 0.0 | 0.00 | 0.00 | 0.00 | 89 | 977.6 |
| 20260509061308 | 82 | 223 | 0.0 | 1.0 | 0.00 | 0.00 | 0.00 | 93 | 977.6 |
| 20260509060805 | 82 | 228 | 0.0 | 0.0 | 0.00 | 0.00 | 0.00 | 94 | 977.9 |
| 20260509060302 | 81 | 222 | 0.0 | 0.0 | 0.00 | 0.00 | 0.00 | 92 | 977.9 |
| 20260509055757 | 79 | 223 | 0.0 | 0.0 | 0.00 | 0.00 | 0.00 | 95 | 978.1 |
| 20260509055253 | 79 | 227 | 0.0 | 0.0 | 0.00 | 0.00 | 0.00 | 95 | 978.2 |
| 20260509054750 | 79 | 223 | 0.0 | 0.0 | 0.00 | 0.00 | 0.00 | 97 | 978.4 |
| 20260509054246 | 79 | 223 | 0.0 | 0.0 | 0.00 | 0.00 | 0.00 | 97 | 978.3 |
| 20260509053745 | 79 | 223 | 0.0 | 0.0 | 0.00 | 0.00 | 0.00 | 96 | 978.3 |
| 20260509053242 | 79 | 220 | 0.0 | 0.0 | 0.00 | 0.00 | 0.00 | 96 | 978.4 |
| 20260509052740 | 79 | 217 | 0.0 | 0.0 | 0.00 | 0.00 | 0.00 | 94 | 978.5 |
| 20260509052237 | 79 | 217 | 0.0 | 0.0 | 0.00 | 0.00 | 0.00 | 94 | 978.7 |
| 20260509051735 | 79 | 217 | 0.0 | 0.0 | 0.00 | 0.00 | 0.00 | 94 | 978.8 |
| 20260509051233 | 79 | 216 | 0.0 | 0.0 | 0.00 | 0.00 | 0.00 | 94 | 978.8 |
| 20260509050729 | 80 | 215 | 0.0 | 0.0 | 0.00 | 0.00 | 0.00 | 93 | 978.9 |
| 20260509050226 | 80 | 218 | 0.0 | 0.0 | 0.00 | 0.00 | 0.00 | 92 | 978.8 |
| 20260509045723 | 80 | 209 | 0.0 | 0.0 | 0.00 | 0.00 | 0.00 | 90 | 978.8 |
| 20260509045220 | 80 | 199 | 0.0 | 0.0 | 0.00 | 0.00 | 0.00 | 89 | 978.8 |
| 20260509044717 | 80 | 195 | 0.0 | 0.0 | 0.00 | 0.00 | 0.00 | 88 | 978.8 |
| 20260509044215 | 81 | 203 | 0.0 | 0.0 | 0.00 | 0.00 | 0.00 | 87 | 978.9 |
| 20260509043711 | 82 | 209 | 0.0 | 0.0 | 0.00 | 0.00 | 0.00 | 86 | 978.8 |
| 20260509043207 | 82 | 209 | 0.0 | 0.0 | 0.00 | 0.00 | 0.00 | 86 | 978.8 |
| 20260509042703 | 82 | 205 | 0.0 | 0.0 | 0.00 | 0.00 | 0.00 | 84 | 978.7 |
| 20260509042159 | 83 | 209 | 0.0 | 0.0 | 0.00 | 0.00 | 0.00 | 84 | 979.0 |
| 20260509041656 | 84 | 212 | 0.0 | 0.0 | 0.00 | 0.00 | 0.00 | 82 | 979.0 |
| 20260509041154 | 84 | 209 | 0.0 | 0.0 | 0.00 | 0.00 | 0.00 | 84 | 979.1 |
| 20260509040652 | 84 | 206 | 0.0 | 0.0 | 0.00 | 0.00 | 0.00 | 81 | 979.2 |
| 20260509040148 | 86 | 203 | 0.0 | 0.0 | 0.00 | 0.00 | 0.00 | 78 | 979.2 |
| 20260509035645 | 86 | 217 | 0.0 | 0.0 | 0.00 | 0.00 | 0.00 | 78 | 979.2 |
| 20260509035142 | 85 | 223 | 0.0 | 0.0 | 0.00 | 0.00 | 0.00 | 79 | 979.2 |
| 20260509034639 | 85 | 218 | 0.0 | 0.0 | 0.00 | 0.00 | 0.00 | 79 | 979.5 |
| 20260509034136 | 86 | 16 | 1.0 | 1.0 | 0.00 | 0.00 | 0.00 | 76 | 979.4 |
| 20260509033634 | 86 | 136 | 0.0 | 0.0 | 0.00 | 0.00 | 0.00 | 77 | 979.5 |
| 20260509033130 | 86 | 135 | 0.0 | 0.0 | 0.00 | 0.00 | 0.00 | 76 | 979.5 |
| 20260509032628 | 86 | 248 | 0.0 | 0.0 | 0.00 | 0.00 | 0.00 | 77 | 979.5 |
| 20260509032124 | 87 | 257 | 1.0 | 2.0 | 0.00 | 0.00 | 0.00 | 76 | 979.7 |
| 20260509031622 | 86 | 247 | 0.0 | 0.0 | 0.00 | 0.00 | 0.00 | 78 | 979.7 |
| 20260509031120 | 86 | 261 | 0.0 | 0.0 | 0.00 | 0.00 | 0.00 | 77 | 979.8 |
| 20260509030618 | 86 | 247 | 0.0 | 1.0 | 0.00 | 0.00 | 0.00 | 77 | 979.9 |
| 20260509030114 | 86 | 246 | 0.0 | 1.0 | 0.00 | 0.00 | 0.00 | 79 | 979.8 |
| 20260509025610 | 86 | 277 | 0.0 | 1.0 | 0.00 | 0.00 | 0.00 | 79 | 979.9 |
| 20260509025106 | 85 | 244 | 0.0 | 1.0 | 0.00 | 0.00 | 0.00 | 80 | 979.9 |
| 20260509024602 | 83 | 253 | 0.0 | 0.0 | 0.00 | 0.00 | 0.00 | 82 | 980.0 |
| 20260509024058 | 83 | 259 | 0.0 | 0.0 | 0.00 | 0.00 | 0.00 | 84 | 980.3 |
| 20260509023556 | 82 | 234 | 0.0 | 0.0 | 0.00 | 0.00 | 0.00 | 85 | 980.1 |
| 20260509023053 | 81 | 213 | 0.0 | 0.0 | 0.00 | 0.00 | 0.00 | 86 | 980.3 |
| 20260509022549 | 81 | 64 | 1.0 | 1.0 | 0.00 | 0.00 | 0.00 | 85 | 980.3 |
| 20260509022047 | 81 | 227 | 0.0 | 0.0 | 0.00 | 0.00 | 0.00 | 86 | 980.4 |
| 20260509021544 | 82 | 73 | 0.0 | 1.0 | 0.00 | 0.00 | 0.00 | 85 | 980.5 |
| 20260509021041 | 82 | 205 | 0.0 | 0.0 | 0.00 | 0.00 | 0.00 | 87 | 980.4 |
| 20260509020539 | 81 | 230 | 0.0 | 0.0 | 0.00 | 0.00 | 0.00 | 88 | 980.5 |
| 20260509020036 | 80 | 231 | 0.0 | 0.0 | 0.00 | 0.00 | 0.00 | 90 | 980.6 |
| 20260509015535 | 80 | 234 | 0.0 | 0.0 | 0.00 | 0.00 | 0.00 | 89 | 980.5 |
| 20260509015032 | 80 | 225 | 0.0 | 0.0 | 0.00 | 0.00 | 0.00 | 90 | 980.4 |
| 20260509014528 | 80 | 233 | 0.0 | 0.0 | 0.00 | 0.00 | 0.00 | 90 | 980.2 |
| 20260509014024 | 79 | 233 | 0.0 | 0.0 | 0.00 | 0.00 | 0.00 | 92 | 980.2 |
| 20260509013522 | 79 | 230 | 0.0 | 0.0 | 0.00 | 0.00 | 0.00 | 93 | 980.2 |
| 20260509013017 | 79 | 230 | 0.0 | 0.0 | 0.00 | 0.00 | 0.00 | 92 | 980.0 |
| 20260509012514 | 79 | 230 | 0.0 | 0.0 | 0.00 | 0.00 | 0.00 | 92 | 980.1 |
| 20260509012011 | 78 | 230 | 0.0 | 0.0 | 0.00 | 0.00 | 0.00 | 94 | 980.1 |
| 20260509011509 | 78 | 230 | 0.0 | 0.0 | 0.00 | 0.00 | 0.00 | 94 | 979.9 |
| 20260509011006 | 78 | 233 | 0.0 | 0.0 | 0.00 | 0.00 | 0.00 | 94 | 980.0 |
| 20260509010504 | 77 | 226 | 0.0 | 0.0 | 0.00 | 0.00 | 0.00 | 95 | 979.9 |
| 20260509010000 | 77 | 226 | 0.0 | 0.0 | 0.00 | 0.00 | 0.00 | 96 | 979.8 |
| 20260509005458 | 76 | 226 | 0.0 | 0.0 | 0.00 | 0.00 | 0.00 | 97 | 979.6 |
| 20260509004957 | 76 | 226 | 0.0 | 0.0 | 0.00 | 0.00 | 0.00 | 98 | 979.5 |
| 20260509004455 | 76 | 218 | 0.0 | 0.0 | 0.00 | 0.00 | 0.00 | 99 | 979.8 |
| 20260509003952 | 76 | 218 | 0.0 | 0.0 | 0.00 | 0.00 | 0.00 | 99 | 979.6 |
| 20260509003451 | 76 | 218 | 0.0 | 0.0 | 0.00 | 0.00 | 0.00 | 99 | 979.7 |
| 20260509002947 | 75 | 218 | 0.0 | 0.0 | 0.00 | 0.00 | 0.00 | 99 | 979.5 |
| 20260509002445 | 75 | 218 | 0.0 | 0.0 | 0.00 | 0.00 | 0.00 | 99 | 979.6 |
| 20260509001942 | 75 | 218 | 0.0 | 0.0 | 0.00 | 0.00 | 0.00 | 99 | 979.7 |
| 20260509001438 | 75 | 218 | 0.0 | 0.0 | 0.00 | 0.00 | 0.00 | 99 | 979.4 |
| 20260509000935 | 75 | 218 | 0.0 | 0.0 | 0.00 | 0.00 | 0.00 | 99 | 979.2 |
| 20260509000433 | 75 | 218 | 0.0 | 0.0 | 0.00 | 0.00 | 0.00 | 99 | 979.4 |
| 20260508235929 | 75 | 218 | 0.0 | 0.0 | 0.00 | 0.00 | 0.00 | 99 | 979.2 |
| 20260508235427 | 75 | 218 | 0.0 | 0.0 | 0.00 | 0.00 | 0.00 | 99 | 979.2 |
| 20260508234923 | 75 | 218 | 0.0 | 0.0 | 0.00 | 0.00 | 0.00 | 99 | 979.2 |
| 20260508234420 | 75 | 218 | 0.0 | 0.0 | 0.00 | 0.00 | 0.00 | 99 | 979.0 |
| 20260508233918 | 75 | 218 | 0.0 | 0.0 | 0.00 | 0.00 | 0.00 | 99 | 979.1 |
| 20260508233417 | 75 | 218 | 0.0 | 0.0 | 0.00 | 0.00 | 0.00 | 98 | 979.0 |
| 20260508232914 | 75 | 205 | 0.0 | 0.0 | 0.00 | 0.00 | 0.00 | 98 | 978.8 |
| 20260508232410 | 75 | 210 | 0.0 | 0.0 | 0.00 | 0.00 | 0.00 | 98 | 978.8 |
| 20260508231908 | 75 | 210 | 0.0 | 0.0 | 0.00 | 0.00 | 0.00 | 98 | 979.0 |
| 20260508231405 | 75 | 210 | 0.0 | 0.0 | 0.00 | 0.00 | 0.00 | 98 | 978.7 |
| 20260508230901 | 75 | 210 | 0.0 | 0.0 | 0.00 | 0.00 | 0.00 | 97 | 978.9 |
| 20260508230358 | 75 | 210 | 0.0 | 0.0 | 0.00 | 0.00 | 0.00 | 97 | 978.4 |
| 20260508225855 | 75 | 210 | 0.0 | 0.0 | 0.00 | 0.00 | 0.00 | 97 | 978.7 |
| 20260508225352 | 75 | 210 | 0.0 | 0.0 | 0.00 | 0.00 | 0.00 | 97 | 978.5 |
| 20260508224850 | 75 | 210 | 0.0 | 0.0 | 0.00 | 0.00 | 0.00 | 97 | 978.4 |
| 20260508224347 | 75 | 210 | 0.0 | 0.0 | 0.00 | 0.00 | 0.00 | 98 | 978.3 |
| 20260508223845 | 75 | 210 | 0.0 | 0.0 | 0.00 | 0.00 | 0.00 | 97 | 978.4 |
| 20260508223342 | 75 | 210 | 0.0 | 0.0 | 0.00 | 0.00 | 0.00 | 97 | 978.2 |
| 20260508222839 | 75 | 210 | 0.0 | 0.0 | 0.00 | 0.00 | 0.00 | 98 | 977.9 |
| 20260508222336 | 75 | 210 | 0.0 | 0.0 | 0.00 | 0.00 | 0.00 | 98 | 978.0 |
| 20260508221833 | 75 | 210 | 0.0 | 0.0 | 0.00 | 0.00 | 0.00 | 98 | 978.0 |
| 20260508221328 | 75 | 210 | 0.0 | 0.0 | 0.00 | 0.00 | 0.00 | 98 | 978.0 |
| 20260508220825 | 75 | 210 | 0.0 | 0.0 | 0.00 | 0.00 | 0.00 | 97 | 977.9 |
| 20260508220321 | 75 | 207 | 0.0 | 0.0 | 0.00 | 0.00 | 0.00 | 97 | 977.7 |
| 20260508215818 | 75 | 207 | 0.0 | 0.0 | 0.00 | 0.00 | 0.00 | 96 | 977.8 |
| 20260508215315 | 75 | 208 | 0.0 | 0.0 | 0.00 | 0.00 | 0.00 | 96 | 977.7 |
| 20260508214812 | 75 | 197 | 0.0 | 0.0 | 0.00 | 0.00 | 0.00 | 96 | 977.7 |
| 20260508214309 | 76 | 197 | 0.0 | 0.0 | 0.00 | 0.00 | 0.00 | 96 | 977.7 |
| 20260508213805 | 76 | 197 | 0.0 | 0.0 | 0.00 | 0.00 | 0.00 | 96 | 977.6 |
| 20260508213302 | 76 | 197 | 0.0 | 0.0 | 0.00 | 0.00 | 0.00 | 96 | 977.7 |
| 20260508212759 | 76 | 197 | 0.0 | 0.0 | 0.00 | 0.00 | 0.00 | 96 | 977.6 |
| 20260508212255 | 76 | 197 | 0.0 | 0.0 | 0.00 | 0.00 | 0.00 | 96 | 977.6 |
| 20260508211750 | 76 | 197 | 0.0 | 0.0 | 0.00 | 0.00 | 0.00 | 95 | 977.3 |
| 20260508211246 | 76 | 197 | 0.0 | 0.0 | 0.00 | 0.00 | 0.00 | 95 | 977.3 |
| 20260508210744 | 76 | 197 | 0.0 | 0.0 | 0.00 | 0.00 | 0.00 | 95 | 977.3 |
| 20260508210241 | 75 | 197 | 0.0 | 0.0 | 0.00 | 0.00 | 0.00 | 95 | 977.2 |
| 20260508205738 | 75 | 197 | 0.0 | 0.0 | 0.00 | 0.00 | 0.00 | 95 | 977.2 |
| 20260508205234 | 76 | 197 | 0.0 | 0.0 | 0.00 | 0.00 | 0.00 | 95 | 977.1 |
| 20260508204731 | 76 | 197 | 0.0 | 0.0 | 0.00 | 0.00 | 0.00 | 95 | 977.2 |
| 20260508204227 | 76 | 197 | 0.0 | 0.0 | 0.00 | 0.00 | 0.00 | 95 | 977.0 |
| 20260508203723 | 76 | 197 | 0.0 | 0.0 | 0.00 | 0.00 | 0.00 | 95 | 977.2 |
| 20260508203220 | 76 | 197 | 0.0 | 0.0 | 0.00 | 0.00 | 0.00 | 95 | 977.2 |
| 20260508202716 | 76 | 197 | 0.0 | 0.0 | 0.00 | 0.00 | 0.00 | 95 | 977.2 |
| 20260508202213 | 76 | 197 | 0.0 | 0.0 | 0.00 | 0.00 | 0.00 | 95 | 977.1 |
| 20260508201710 | 76 | 197 | 0.0 | 0.0 | 0.00 | 0.00 | 0.00 | 94 | 977.1 |
| 20260508201206 | 76 | 197 | 0.0 | 0.0 | 0.00 | 0.00 | 0.00 | 94 | 976.9 |
| 20260508200703 | 76 | 197 | 0.0 | 0.0 | 0.00 | 0.00 | 0.00 | 94 | 977.0 |
| 20260508200159 | 76 | 197 | 0.0 | 0.0 | 0.00 | 0.00 | 0.00 | 94 | 976.8 |
| 20260508195656 | 76 | 197 | 0.0 | 0.0 | 0.00 | 0.00 | 0.00 | 94 | 976.8 |
| 20260508195152 | 76 | 197 | 0.0 | 0.0 | 0.00 | 0.00 | 0.00 | 94 | 977.0 |
| 20260508194649 | 76 | 197 | 0.0 | 0.0 | 0.00 | 0.00 | 0.00 | 93 | 976.9 |
| 20260508194146 | 76 | 197 | 0.0 | 0.0 | 0.00 | 0.00 | 0.00 | 93 | 976.9 |
| 20260508193643 | 76 | 197 | 0.0 | 0.0 | 0.00 | 0.00 | 0.00 | 92 | 976.9 |
| 20260508193140 | 77 | 197 | 0.0 | 0.0 | 0.00 | 0.00 | 0.00 | 93 | 976.9 |
| 20260508192636 | 77 | 197 | 0.0 | 0.0 | 0.00 | 0.00 | 0.00 | 93 | 976.9 |
| 20260508192134 | 77 | 197 | 0.0 | 0.0 | 0.00 | 0.00 | 0.00 | 93 | 977.1 |
| 20260508191630 | 77 | 197 | 0.0 | 0.0 | 0.00 | 0.00 | 0.00 | 92 | 976.9 |
| 20260508191127 | 77 | 197 | 0.0 | 0.0 | 0.00 | 0.00 | 0.00 | 92 | 976.8 |
| 20260508190625 | 77 | 197 | 0.0 | 0.0 | 0.00 | 0.00 | 0.00 | 92 | 977.1 |
| 20260508190121 | 77 | 194 | 0.0 | 0.0 | 0.00 | 0.00 | 0.00 | 92 | 977.1 |
| 20260508185618 | 77 | 108 | 0.0 | 0.0 | 0.00 | 0.00 | 0.00 | 92 | 976.9 |
| 20260508185115 | 77 | 182 | 0.0 | 0.0 | 0.00 | 0.00 | 0.00 | 92 | 977.1 |
| 20260508184612 | 77 | 174 | 0.0 | 1.0 | 0.00 | 0.00 | 0.00 | 92 | 976.9 |
| 20260508184109 | 77 | 197 | 0.0 | 0.0 | 0.00 | 0.00 | 0.00 | 92 | 977.0 |
| 20260508183606 | 77 | 214 | 0.0 | 0.0 | 0.00 | 0.00 | 0.00 | 92 | 977.2 |
| 20260508183102 | 77 | 214 | 0.0 | 0.0 | 0.00 | 0.00 | 0.00 | 92 | 976.9 |
| 20260508182558 | 77 | 214 | 0.0 | 0.0 | 0.00 | 0.00 | 0.00 | 91 | 977.2 |
| 20260508182055 | 77 | 214 | 0.0 | 0.0 | 0.00 | 0.00 | 0.00 | 91 | 977.1 |
| 20260508181555 | 77 | 214 | 0.0 | 0.0 | 0.00 | 0.00 | 0.00 | 91 | 977.1 |
| 20260508181053 | 77 | 214 | 0.0 | 0.0 | 0.00 | 0.00 | 0.00 | 91 | 977.0 |
| 20260508180550 | 77 | 214 | 0.0 | 0.0 | 0.00 | 0.00 | 0.00 | 91 | 977.1 |
| 20260508180046 | 77 | 214 | 0.0 | 0.0 | 0.00 | 0.00 | 0.00 | 90 | 977.3 |
| 20260508175543 | 78 | 214 | 0.0 | 0.0 | 0.00 | 0.00 | 0.00 | 91 | 977.3 |
| 20260508175041 | 78 | 214 | 0.0 | 0.0 | 0.00 | 0.00 | 0.00 | 90 | 977.3 |
| 20260508174538 | 78 | 214 | 0.0 | 0.0 | 0.00 | 0.00 | 0.00 | 90 | 977.3 |
| 20260508174035 | 78 | 214 | 0.0 | 0.0 | 0.00 | 0.00 | 0.00 | 89 | 977.2 |
| 20260508173532 | 78 | 214 | 0.0 | 0.0 | 0.00 | 0.00 | 0.00 | 89 | 977.5 |
| 20260508173027 | 78 | 214 | 0.0 | 0.0 | 0.00 | 0.00 | 0.00 | 89 | 977.7 |
| 20260508172525 | 78 | 214 | 0.0 | 0.0 | 0.00 | 0.00 | 0.00 | 88 | 977.6 |
| 20260508172021 | 78 | 214 | 0.0 | 0.0 | 0.00 | 0.00 | 0.00 | 88 | 977.8 |
| 20260508171518 | 78 | 214 | 0.0 | 0.0 | 0.00 | 0.00 | 0.00 | 88 | 977.8 |
| 20260508171014 | 78 | 214 | 0.0 | 0.0 | 0.00 | 0.00 | 0.00 | 89 | 977.8 |
| 20260508170511 | 77 | 214 | 0.0 | 0.0 | 0.00 | 0.00 | 0.00 | 89 | 977.8 |
| 20260508170009 | 77 | 213 | 0.0 | 0.0 | 0.00 | 0.00 | 0.00 | 90 | 978.0 |
| 20260508165506 | 77 | 213 | 0.0 | 0.0 | 0.00 | 0.00 | 0.00 | 90 | 977.9 |
| 20260508165003 | 77 | 213 | 0.0 | 0.0 | 0.00 | 0.00 | 0.00 | 90 | 977.9 |
| 20260508164459 | 78 | 211 | 0.0 | 0.0 | 0.00 | 0.00 | 0.00 | 90 | 978.0 |
| 20260508163956 | 78 | 194 | 0.0 | 0.0 | 0.00 | 0.00 | 0.00 | 90 | 978.0 |
| 20260508163454 | 78 | 222 | 0.0 | 0.0 | 0.00 | 0.00 | 0.00 | 89 | 978.0 |
| 20260508162949 | 78 | 222 | 0.0 | 0.0 | 0.00 | 0.00 | 0.00 | 89 | 977.9 |
| 20260508162447 | 78 | 222 | 0.0 | 0.0 | 0.00 | 0.00 | 0.00 | 89 | 977.9 |
| 20260508161943 | 79 | 222 | 0.0 | 0.0 | 0.00 | 0.00 | 0.00 | 88 | 978.1 |
| 20260508161441 | 79 | 222 | 0.0 | 0.0 | 0.00 | 0.00 | 0.00 | 87 | 978.1 |
| 20260508160938 | 79 | 222 | 0.0 | 0.0 | 0.00 | 0.00 | 0.00 | 87 | 978.0 |
| 20260508160438 | 79 | 222 | 0.0 | 0.0 | 0.00 | 0.00 | 0.00 | 87 | 977.9 |
| 20260508155933 | 79 | 222 | 0.0 | 0.0 | 0.00 | 0.00 | 0.00 | 85 | 978.0 |
| 20260508155430 | 79 | 222 | 0.0 | 0.0 | 0.00 | 0.00 | 0.00 | 86 | 978.0 |
| 20260508154927 | 79 | 222 | 0.0 | 0.0 | 0.00 | 0.00 | 0.00 | 85 | 978.0 |
| 20260508154424 | 79 | 222 | 0.0 | 0.0 | 0.00 | 0.00 | 0.00 | 85 | 977.9 |
| 20260508153920 | 79 | 227 | 0.0 | 0.0 | 0.00 | 0.00 | 0.00 | 85 | 977.9 |
| 20260508153418 | 79 | 227 | 0.0 | 0.0 | 0.00 | 0.00 | 0.00 | 85 | 977.9 |
| 20260508152914 | 79 | 227 | 0.0 | 0.0 | 0.00 | 0.00 | 0.00 | 85 | 977.6 |
| 20260508152411 | 80 | 223 | 0.0 | 0.0 | 0.00 | 0.00 | 0.00 | 85 | 977.7 |
| 20260508151907 | 79 | 222 | 0.0 | 0.0 | 0.00 | 0.00 | 0.00 | 85 | 977.7 |
| 20260508151404 | 80 | 222 | 0.0 | 0.0 | 0.00 | 0.00 | 0.00 | 84 | 977.6 |
| 20260508150900 | 80 | 222 | 0.0 | 0.0 | 0.00 | 0.00 | 0.00 | 84 | 977.6 |
| 20260508150357 | 79 | 222 | 0.0 | 0.0 | 0.00 | 0.00 | 0.00 | 84 | 977.6 |
| 20260508145853 | 79 | 222 | 0.0 | 0.0 | 0.00 | 0.00 | 0.00 | 84 | 977.3 |
| 20260508145350 | 79 | 222 | 0.0 | 0.0 | 0.00 | 0.00 | 0.00 | 84 | 977.3 |
| 20260508144847 | 80 | 222 | 0.0 | 0.0 | 0.00 | 0.00 | 0.00 | 85 | 977.5 |
| 20260508144345 | 80 | 222 | 0.0 | 0.0 | 0.00 | 0.00 | 0.00 | 85 | 977.3 |
| 20260508143842 | 79 | 236 | 0.0 | 0.0 | 0.00 | 0.00 | 0.00 | 85 | 977.5 |
| 20260508143339 | 80 | 236 | 0.0 | 0.0 | 0.00 | 0.00 | 0.00 | 85 | 977.2 |
| 20260508142836 | 80 | 236 | 0.0 | 0.0 | 0.00 | 0.00 | 0.00 | 85 | 976.9 |
| 20260508142332 | 80 | 236 | 0.0 | 0.0 | 0.00 | 0.00 | 0.00 | 85 | 977.0 |
| 20260508141829 | 80 | 238 | 0.0 | 0.0 | 0.00 | 0.00 | 0.00 | 84 | 977.0 |
| 20260508141326 | 80 | 222 | 0.0 | 0.0 | 0.00 | 0.00 | 0.00 | 85 | 976.8 |
| 20260508140823 | 80 | 223 | 0.0 | 0.0 | 0.00 | 0.00 | 0.00 | 84 | 977.0 |
| 20260508140320 | 80 | 222 | 0.0 | 0.0 | 0.00 | 0.00 | 0.00 | 85 | 976.9 |
| 20260508135816 | 80 | 222 | 0.0 | 0.0 | 0.00 | 0.00 | 0.00 | 85 | 976.8 |
| 20260508135312 | 80 | 219 | 0.0 | 0.0 | 0.00 | 0.00 | 0.00 | 84 | 976.8 |
| 20260508134808 | 81 | 213 | 0.0 | 0.0 | 0.00 | 0.00 | 0.00 | 84 | 976.9 |
| 20260508134305 | 81 | 212 | 0.0 | 0.0 | 0.00 | 0.00 | 0.00 | 82 | 976.9 |
| 20260508133802 | 81 | 209 | 0.0 | 0.0 | 0.00 | 0.00 | 0.00 | 81 | 976.8 |
| 20260508133300 | 81 | 204 | 0.0 | 0.0 | 0.00 | 0.00 | 0.00 | 82 | 976.8 |
| 20260508132757 | 81 | 220 | 0.0 | 0.0 | 0.00 | 0.00 | 0.00 | 81 | 976.6 |
| 20260508132254 | 81 | 220 | 0.0 | 0.0 | 0.00 | 0.00 | 0.00 | 82 | 976.6 |
| 20260508131750 | 81 | 220 | 0.0 | 0.0 | 0.00 | 0.00 | 0.00 | 82 | 976.7 |
| 20260508131247 | 82 | 220 | 0.0 | 0.0 | 0.00 | 0.00 | 0.00 | 82 | 976.3 |
| 20260508130743 | 82 | 220 | 0.0 | 0.0 | 0.00 | 0.00 | 0.00 | 82 | 976.2 |
| 20260508130240 | 82 | 220 | 0.0 | 0.0 | 0.00 | 0.00 | 0.00 | 80 | 976.1 |
| 20260508125736 | 82 | 220 | 0.0 | 0.0 | 0.00 | 0.00 | 0.00 | 76 | 976.0 |
| 20260508125232 | 83 | 220 | 0.0 | 0.0 | 0.00 | 0.00 | 0.00 | 75 | 975.9 |
| 20260508124731 | 83 | 210 | 0.0 | 0.0 | 0.00 | 0.00 | 0.00 | 75 | 975.9 |
| 20260508124227 | 83 | 200 | 0.0 | 0.0 | 0.00 | 0.00 | 0.00 | 75 | 975.7 |
| 20260508123726 | 83 | 208 | 0.0 | 0.0 | 0.00 | 0.00 | 0.00 | 75 | 975.5 |
| 20260508123224 | 83 | 208 | 0.0 | 0.0 | 0.00 | 0.00 | 0.00 | 75 | 975.4 |
| 20260508122719 | 84 | 205 | 0.0 | 0.0 | 0.00 | 0.00 | 0.00 | 74 | 975.5 |
| 20260508122216 | 84 | 209 | 0.0 | 0.0 | 0.00 | 0.00 | 0.00 | 74 | 975.3 |
| 20260508121714 | 84 | 208 | 0.0 | 0.0 | 0.00 | 0.00 | 0.00 | 73 | 975.6 |
| 20260508121213 | 84 | 208 | 0.0 | 0.0 | 0.00 | 0.00 | 0.00 | 73 | 975.6 |
| 20260508120709 | 84 | 208 | 0.0 | 0.0 | 0.00 | 0.00 | 0.00 | 73 | 975.5 |
| 20260508120208 | 84 | 208 | 0.0 | 0.0 | 0.00 | 0.00 | 0.00 | 73 | 975.4 |
| 20260508115705 | 84 | 208 | 0.0 | 0.0 | 0.00 | 0.00 | 0.00 | 73 | 975.4 |
| 20260508115202 | 84 | 208 | 0.0 | 0.0 | 0.00 | 0.00 | 0.00 | 72 | 975.4 |
| 20260508114658 | 84 | 208 | 0.0 | 0.0 | 0.00 | 0.00 | 0.00 | 73 | 975.4 |
| 20260508114155 | 85 | 208 | 0.0 | 0.0 | 0.00 | 0.00 | 0.00 | 71 | 975.3 |
| 20260508113652 | 85 | 207 | 0.0 | 0.0 | 0.00 | 0.00 | 0.00 | 71 | 975.2 |
| 20260508113150 | 85 | 208 | 0.0 | 0.0 | 0.00 | 0.00 | 0.00 | 70 | 975.3 |
| 20260508112646 | 86 | 212 | 0.0 | 0.0 | 0.00 | 0.00 | 0.00 | 69 | 975.3 |
| 20260508112143 | 86 | 222 | 0.0 | 0.0 | 0.00 | 0.00 | 0.00 | 69 | 975.0 |
| 20260508111640 | 86 | 204 | 0.0 | 2.0 | 0.00 | 0.00 | 0.00 | 68 | 974.9 |
| 20260508111137 | 86 | 103 | 0.0 | 1.0 | 0.00 | 0.00 | 0.00 | 68 | 974.9 |
| 20260508110635 | 86 | 186 | 0.0 | 0.0 | 0.00 | 0.00 | 0.00 | 68 | 974.8 |
| 20260508110131 | 86 | 169 | 0.0 | 2.0 | 0.00 | 0.00 | 0.00 | 68 | 974.7 |
| 20260508105626 | 86 | 155 | 1.0 | 2.0 | 0.00 | 0.00 | 0.00 | 67 | 974.7 |